createdAt,value
2019-05-15T00:00:49.302Z,74.61
2019-05-15T00:03:19.559Z,74.92
2019-05-15T00:05:45.080Z,75.53
2019-05-15T00:08:11.557Z,75.67
2019-05-15T00:10:38.980Z,77.00
2019-05-15T00:13:05.966Z,77.56
2019-05-15T00:15:32.546Z,77.66
2019-05-15T00:17:59.049Z,77.97
2019-05-15T00:20:25.838Z,79.22
2019-05-15T00:22:52.371Z,79.70
2019-05-15T00:25:19.044Z,79.92
2019-05-15T00:27:45.555Z,79.52
2019-05-15T00:30:12.059Z,78.95
2019-05-15T00:32:39.344Z,78.60
2019-05-15T00:35:06.297Z,78.18
2019-05-15T00:37:32.862Z,78.25
2019-05-15T00:39:59.478Z,77.99
2019-05-15T00:42:28.352Z,77.76
2019-05-15T00:44:54.718Z,77.73
2019-05-15T00:47:21.269Z,77.86
2019-05-15T00:49:48.772Z,78.30
2019-05-15T00:52:17.926Z,78.34
2019-05-15T00:54:44.148Z,78.95
2019-05-15T00:57:10.645Z,78.80
2019-05-15T00:59:38.972Z,78.82
2019-05-15T01:02:05.675Z,78.80
2019-05-15T01:04:32.155Z,78.34
2019-05-15T01:06:58.990Z,78.19
2019-05-15T01:09:25.521Z,78.27
2019-05-15T01:11:52.483Z,78.42
2019-05-15T01:14:19.391Z,79.03
2019-05-15T01:16:45.882Z,79.33
2019-05-15T01:19:14.995Z,79.46
2019-05-15T01:21:40.873Z,79.49
2019-05-15T01:24:08.410Z,79.31
2019-05-15T01:26:34.935Z,79.58
2019-05-15T01:29:01.694Z,79.77
2019-05-15T01:31:28.669Z,79.82
2019-05-15T01:33:55.175Z,80.49
2019-05-15T01:36:21.640Z,80.30
2019-05-15T01:38:48.382Z,80.68
2019-05-15T01:41:14.870Z,81.33
2019-05-15T01:43:41.631Z,81.39
2019-05-15T01:46:08.538Z,81.38
2019-05-15T01:48:35.114Z,81.45
2019-05-15T01:51:01.597Z,81.91
2019-05-15T01:53:29.032Z,82.32
2019-05-15T01:55:55.684Z,82.72
2019-05-15T01:58:22.212Z,82.67
2019-05-15T02:00:48.699Z,82.98
2019-05-15T02:03:15.310Z,83.29
2019-05-15T02:05:42.050Z,83.49
2019-05-15T02:08:08.611Z,82.96
2019-05-15T02:10:35.212Z,82.53
2019-05-15T02:13:01.707Z,82.79
2019-05-15T02:15:28.702Z,82.95
2019-05-15T02:17:55.325Z,83.06
2019-05-15T02:20:21.820Z,83.41
2019-05-15T02:22:49.624Z,83.27
2019-05-15T02:25:18.406Z,83.27
2019-05-15T02:27:44.634Z,84.01
2019-05-15T02:30:22.100Z,84.61
2019-05-15T02:32:40.227Z,84.37
2019-05-15T02:35:09.966Z,84.34
2019-05-15T02:37:35.936Z,84.40
2019-05-15T02:40:03.142Z,83.93
2019-05-15T02:42:29.702Z,84.01
2019-05-15T02:44:58.694Z,83.65
2019-05-15T02:47:28.857Z,83.47
2019-05-15T02:49:53.805Z,83.23
2019-05-15T02:52:20.335Z,84.40
2019-05-15T02:54:49.817Z,84.55
2019-05-15T02:57:15.240Z,84.53
2019-05-15T02:59:42.145Z,84.37
2019-05-15T03:02:10.167Z,84.69
2019-05-15T03:04:39.815Z,84.45
2019-05-15T03:07:05.416Z,85.28
2019-05-15T03:09:31.930Z,85.33
2019-05-15T03:11:58.775Z,84.94
2019-05-15T03:14:29.008Z,85.03
2019-05-15T03:16:54.908Z,85.44
2019-05-15T03:19:21.520Z,85.20
2019-05-15T03:21:49.645Z,85.10
2019-05-15T03:24:19.419Z,85.36
2019-05-15T03:26:45.240Z,85.44
2019-05-15T03:29:11.709Z,84.53
2019-05-15T03:31:56.645Z,84.93
2019-05-15T03:34:19.299Z,85.30
2019-05-15T03:36:35.160Z,85.25
2019-05-15T03:39:01.827Z,85.58
2019-05-15T03:41:29.855Z,85.20
2019-05-15T03:43:59.504Z,85.21
2019-05-15T03:46:29.157Z,85.51
2019-05-15T03:48:54.592Z,85.46
2019-05-15T03:51:21.116Z,85.33
2019-05-15T03:53:49.779Z,85.23
2019-05-15T03:56:19.024Z,84.64
2019-05-15T03:58:49.083Z,84.32
2019-05-15T04:01:28.503Z,84.90
2019-05-15T04:03:42.838Z,85.18
2019-05-15T04:06:10.365Z,85.05
2019-05-15T04:08:39.163Z,85.04
2019-05-15T04:11:05.499Z,84.71
2019-05-15T04:13:32.916Z,85.04
2019-05-15T04:15:59.740Z,84.81
2019-05-15T04:18:29.196Z,84.74
2019-05-15T04:20:55.823Z,84.61
2019-05-15T04:23:22.883Z,85.02
2019-05-15T04:25:50.777Z,84.67
2019-05-15T04:28:19.350Z,84.16
2019-05-15T04:30:46.032Z,83.91
2019-05-15T04:33:13.100Z,83.75
2019-05-15T04:35:40.615Z,83.70
2019-05-15T04:38:09.311Z,83.11
2019-05-15T04:40:35.570Z,82.75
2019-05-15T04:43:02.088Z,82.01
2019-05-15T04:45:34.731Z,81.68
2019-05-15T04:47:58.781Z,81.02
2019-05-15T04:50:28.437Z,79.96
2019-05-15T04:52:53.906Z,79.05
2019-05-15T04:55:20.359Z,77.90
2019-05-15T04:57:49.958Z,76.72
2019-05-15T05:00:20.884Z,76.23
2019-05-15T05:02:49.690Z,75.09
2019-05-15T05:05:18.812Z,74.54
2019-05-15T05:07:44.421Z,73.47
2019-05-15T05:10:11.359Z,71.63
2019-05-15T05:12:41.888Z,69.87
2019-05-15T05:15:08.485Z,68.98
2019-05-15T05:17:34.751Z,67.65
2019-05-15T05:20:02.486Z,67.38
2019-05-15T05:22:29.129Z,66.03
2019-05-15T05:24:55.703Z,65.97
2019-05-15T05:27:22.224Z,63.36
2019-05-15T05:29:48.819Z,62.80
2019-05-15T05:32:30.444Z,61.82
2019-05-15T05:34:44.805Z,60.55
2019-05-15T05:37:11.408Z,60.32
2019-05-15T05:39:39.459Z,59.28
2019-05-15T05:42:07.864Z,58.61
2019-05-15T05:44:34.801Z,59.50
2019-05-15T05:47:01.269Z,59.10
2019-05-15T05:49:28.845Z,58.44
2019-05-15T05:51:55.422Z,58.01
2019-05-15T05:54:21.921Z,57.65
2019-05-15T05:56:48.511Z,57.86
2019-05-15T05:59:14.959Z,56.59
2019-05-15T06:01:44.099Z,55.34
2019-05-15T06:04:09.794Z,53.40
2019-05-15T06:06:38.453Z,54.51
2019-05-15T06:09:05.542Z,54.24
2019-05-15T06:11:32.289Z,52.78
2019-05-15T06:13:59.006Z,52.64
2019-05-15T06:16:28.379Z,52.79
2019-05-15T06:18:54.467Z,53.75
2019-05-15T06:21:20.976Z,55.23
2019-05-15T06:23:54.593Z,57.48
2019-05-15T06:26:15.883Z,58.74
2019-05-15T06:28:42.855Z,59.35
2019-05-15T06:31:10.443Z,60.01
2019-05-15T06:33:38.400Z,61.10
2019-05-15T06:36:05.100Z,61.33
2019-05-15T06:38:31.564Z,61.46
2019-05-15T06:40:58.426Z,60.70
2019-05-15T06:43:24.894Z,60.85
2019-05-15T06:45:51.648Z,59.98
2019-05-15T06:48:18.619Z,59.95
2019-05-15T06:50:45.163Z,58.68
2019-05-15T06:53:11.929Z,59.12
2019-05-15T06:55:38.966Z,59.15
2019-05-15T06:58:05.593Z,60.17
2019-05-15T07:00:32.209Z,61.03
2019-05-15T07:02:58.674Z,60.93
2019-05-15T07:05:25.291Z,61.25
2019-05-15T07:07:51.759Z,61.07
2019-05-15T07:10:18.983Z,61.68
2019-05-15T07:12:48.500Z,60.65
2019-05-15T07:15:14.384Z,60.35
2019-05-15T07:17:41.087Z,60.01
2019-05-15T07:20:08.752Z,59.98
2019-05-15T07:22:35.524Z,60.04
2019-05-15T07:25:03.420Z,60.17
2019-05-15T07:27:30.192Z,58.88
2019-05-15T07:29:58.368Z,58.20
2019-05-15T07:32:25.158Z,56.61
2019-05-15T07:34:51.929Z,57.38
2019-05-15T07:37:19.042Z,57.21
2019-05-15T07:39:45.837Z,56.34
2019-05-15T07:42:12.374Z,56.20
2019-05-15T07:44:39.082Z,55.95
2019-05-15T07:47:05.877Z,54.46
2019-05-15T07:49:32.428Z,54.42
2019-05-15T07:52:00.048Z,53.98
2019-05-15T07:54:28.739Z,54.28
2019-05-15T07:56:54.932Z,53.22
2019-05-15T07:59:21.404Z,51.67
2019-05-15T08:01:48.824Z,51.13
2019-05-15T08:04:28.558Z,51.32
2019-05-15T08:06:44.167Z,49.98
2019-05-15T08:09:10.671Z,49.02
2019-05-15T08:11:39.171Z,49.06
2019-05-15T08:14:05.569Z,46.23
2019-05-15T08:16:33.126Z,46.30
2019-05-15T08:18:59.613Z,47.29
2019-05-15T08:21:26.364Z,46.66
2019-05-15T08:23:53.130Z,47.61
2019-05-15T08:26:19.634Z,47.97
2019-05-15T08:28:48.521Z,47.99
2019-05-15T08:31:14.998Z,47.50
2019-05-15T08:33:41.481Z,47.40
2019-05-15T08:36:08.686Z,46.84
2019-05-15T08:38:35.206Z,47.55
2019-05-15T08:41:01.666Z,47.67
2019-05-15T08:43:31.426Z,43.83
2019-05-15T08:45:58.654Z,44.60
2019-05-15T08:48:27.624Z,42.77
2019-05-15T08:50:53.944Z,44.55
2019-05-15T08:53:20.457Z,43.70
2019-05-15T08:55:48.096Z,43.73
2019-05-15T08:58:14.653Z,42.86
2019-05-15T09:00:44.096Z,40.30
2019-05-15T09:03:10.371Z,41.45
2019-05-15T09:05:38.865Z,40.39
2019-05-15T09:08:05.765Z,41.45
2019-05-15T09:10:32.216Z,41.05
2019-05-15T09:12:59.121Z,41.77
2019-05-15T09:15:29.184Z,38.91
2019-05-15T09:18:08.025Z,39.77
2019-05-15T09:20:23.833Z,39.96
2019-05-15T09:22:50.306Z,38.95
2019-05-15T09:25:19.359Z,39.14
2019-05-15T09:27:45.450Z,40.42
2019-05-15T09:30:12.240Z,39.67
2019-05-15T09:32:39.392Z,39.29
2019-05-15T09:35:08.362Z,38.56
2019-05-15T09:37:35.118Z,37.12
2019-05-15T09:40:01.768Z,37.21
2019-05-15T09:42:28.698Z,38.66
2019-05-15T09:44:55.185Z,38.92
2019-05-15T09:47:22.005Z,39.16
2019-05-15T09:49:48.662Z,38.38
2019-05-15T09:52:19.121Z,39.58
2019-05-15T09:54:43.896Z,38.24
2019-05-15T09:57:11.077Z,38.93
2019-05-15T09:59:48.597Z,39.44
2019-05-15T10:02:14.428Z,39.28
2019-05-15T10:04:40.967Z,38.29
2019-05-15T10:07:08.239Z,39.27
2019-05-15T10:09:35.527Z,38.54
2019-05-15T10:12:02.146Z,38.79
2019-05-15T10:14:29.624Z,39.27
2019-05-15T10:16:58.395Z,37.99
2019-05-15T10:19:24.871Z,39.88
2019-05-15T10:21:53.498Z,39.68
2019-05-15T10:24:20.093Z,40.94
2019-05-15T10:26:48.896Z,40.03
2019-05-15T10:29:16.192Z,40.77
2019-05-15T10:31:42.761Z,41.25
2019-05-15T10:34:09.395Z,41.53
2019-05-15T10:36:38.504Z,39.85
2019-05-15T10:39:08.160Z,39.56
2019-05-15T10:41:34.095Z,39.06
2019-05-15T10:44:00.681Z,41.22
2019-05-15T10:46:27.123Z,41.76
2019-05-15T10:48:54.757Z,42.16
2019-05-15T10:51:21.463Z,40.86
2019-05-15T10:53:48.815Z,40.12
2019-05-15T10:56:15.493Z,41.21
2019-05-15T10:58:41.976Z,40.31
2019-05-15T11:01:11.333Z,39.76
2019-05-15T11:03:39.713Z,40.15
2019-05-15T11:06:05.836Z,39.83
2019-05-15T11:08:32.420Z,39.26
2019-05-15T11:10:58.978Z,39.96
2019-05-15T11:13:25.729Z,41.19
2019-05-15T11:15:52.236Z,42.04
2019-05-15T11:18:18.752Z,40.49
2019-05-15T11:20:45.373Z,40.43
2019-05-15T11:23:15.006Z,41.90
2019-05-15T11:25:41.981Z,43.17
2019-05-15T11:28:08.487Z,39.89
2019-05-15T11:30:34.989Z,40.25
2019-05-15T11:33:02.725Z,41.09
2019-05-15T11:35:29.336Z,42.29
2019-05-15T11:37:57.141Z,43.14
2019-05-15T11:40:23.925Z,42.52
2019-05-15T11:42:50.443Z,41.51
2019-05-15T11:45:18.524Z,41.71
2019-05-15T11:47:48.115Z,41.42
2019-05-15T11:50:14.202Z,42.51
2019-05-15T11:52:40.835Z,42.14
2019-05-15T11:55:08.364Z,41.81
2019-05-15T11:57:42.637Z,42.21
2019-05-15T12:00:05.280Z,41.24
2019-05-15T12:02:31.924Z,41.81
2019-05-15T12:05:03.330Z,41.57
2019-05-15T12:07:30.069Z,42.07
2019-05-15T12:09:58.026Z,42.99
2019-05-15T12:12:24.672Z,43.11
2019-05-15T12:14:51.136Z,42.44
2019-05-15T12:17:19.034Z,42.08
2019-05-15T12:19:55.057Z,42.66
2019-05-15T12:22:16.092Z,41.91
2019-05-15T12:24:43.721Z,42.82
2019-05-15T12:29:39.978Z,43.31
2019-05-15T12:32:23.561Z,42.22
2019-05-15T12:34:35.368Z,44.11
2019-05-15T12:37:01.829Z,43.64
2019-05-15T12:39:30.361Z,44.20
2019-05-15T13:01:45.356Z,43.81
2019-05-15T13:04:11.869Z,45.52
2019-05-15T13:06:47.799Z,44.17
2019-05-15T13:09:08.675Z,44.04
2019-05-15T13:11:37.710Z,43.09
2019-05-15T13:14:04.422Z,43.87
2019-05-15T13:16:31.025Z,42.22
2019-05-15T13:18:58.894Z,43.15
2019-05-15T13:21:25.428Z,43.74
2019-05-15T13:23:53.087Z,43.72
2019-05-15T13:26:26.209Z,43.09
2019-05-15T13:28:48.875Z,43.58
2019-05-15T13:31:15.489Z,44.56
2019-05-15T13:33:41.987Z,44.60
2019-05-15T13:36:09.060Z,45.25
2019-05-15T13:38:38.018Z,44.48
2019-05-15T13:41:04.621Z,44.61
2019-05-15T13:43:31.395Z,44.81
2019-05-15T13:45:58.142Z,43.79
2019-05-15T13:48:24.881Z,44.84
2019-05-15T13:50:51.354Z,44.39
2019-05-15T13:53:18.414Z,44.83
2019-05-15T13:55:44.973Z,44.96
2019-05-15T13:58:20.317Z,45.15
2019-05-15T14:00:49.080Z,44.10
2019-05-15T14:03:15.415Z,44.64
2019-05-15T14:05:44.992Z,45.93
2019-05-15T14:08:11.380Z,45.81
2019-05-15T14:10:38.560Z,45.88
2019-05-15T14:13:05.290Z,46.95
2019-05-15T14:15:31.816Z,47.06
2019-05-15T14:17:58.332Z,46.59
2019-05-15T14:20:24.780Z,45.68
2019-05-15T14:22:51.520Z,45.54
2019-05-15T14:25:18.540Z,45.32
2019-05-15T14:27:45.287Z,45.81
2019-05-15T14:30:12.319Z,45.78
2019-05-15T14:32:39.652Z,45.45
2019-05-15T14:35:09.097Z,45.94
2019-05-15T14:37:36.102Z,45.15
2019-05-15T14:40:03.399Z,46.86
2019-05-15T14:42:30.303Z,45.04
2019-05-15T14:44:59.101Z,45.04
2019-05-15T14:47:26.428Z,45.24
2019-05-15T14:49:52.974Z,45.30
2019-05-15T14:52:19.709Z,45.33
2019-05-15T14:54:48.833Z,45.25
2019-05-15T14:57:14.834Z,45.43
2019-05-15T14:59:41.504Z,46.00
2019-05-15T15:02:09.054Z,45.75
2019-05-15T15:04:35.702Z,45.81
2019-05-15T15:07:02.461Z,46.29
2019-05-15T15:09:29.065Z,45.50
2019-05-15T15:11:55.788Z,46.37
2019-05-15T15:14:22.484Z,46.02
2019-05-15T15:16:49.075Z,45.45
2019-05-15T15:19:15.620Z,45.56
2019-05-15T15:21:42.158Z,45.17
2019-05-15T15:24:08.881Z,46.04
2019-05-15T15:26:35.493Z,45.85
2019-05-15T15:29:02.331Z,45.77
2019-05-15T15:31:29.089Z,45.69
2019-05-15T15:33:57.854Z,46.38
2019-05-15T15:36:24.278Z,45.41
2019-05-15T15:38:50.755Z,45.71
2019-05-15T15:41:17.562Z,45.96
2019-05-15T15:43:44.083Z,46.28
2019-05-15T15:46:10.668Z,45.65
2019-05-15T15:48:39.017Z,46.10
2019-05-15T15:51:08.955Z,46.52
2019-05-15T15:53:34.921Z,46.47
2019-05-15T15:56:01.623Z,46.29
2019-05-15T15:58:28.949Z,47.18
2019-05-15T16:00:56.251Z,46.28
2019-05-15T16:03:23.810Z,46.45
2019-05-15T16:05:51.375Z,46.63
2019-05-15T16:08:19.079Z,47.08
2019-05-15T16:10:48.284Z,47.29
2019-05-15T16:13:14.722Z,46.58
2019-05-15T16:15:41.382Z,46.53
2019-05-15T16:18:08.843Z,46.51
2019-05-15T16:20:35.593Z,46.74
2019-05-15T16:23:02.966Z,46.40
2019-05-15T16:25:29.511Z,46.31
2019-05-15T16:27:57.802Z,47.46
2019-05-15T16:30:24.431Z,47.24
2019-05-15T16:32:51.134Z,47.49
2019-05-15T16:35:18.608Z,47.06
2019-05-15T16:37:45.322Z,46.59
2019-05-15T16:40:13.083Z,46.98
2019-05-15T16:42:39.638Z,46.99
2019-05-15T16:45:09.067Z,46.37
2019-05-15T16:47:34.854Z,46.34
2019-05-15T16:50:01.393Z,46.39
2019-05-15T16:52:30.833Z,47.42
2019-05-15T16:54:58.131Z,47.93
2019-05-15T16:57:24.915Z,47.62
2019-05-15T16:59:51.455Z,47.61
2019-05-15T17:02:18.828Z,47.80
2019-05-15T17:04:45.507Z,48.03
2019-05-15T17:07:12.275Z,48.47
2019-05-15T17:09:39.181Z,48.86
2019-05-15T17:12:08.555Z,49.03
2019-05-15T17:14:34.051Z,49.19
2019-05-15T17:17:00.720Z,49.34
2019-05-15T17:19:29.352Z,49.99
2019-05-15T17:21:55.852Z,48.81
2019-05-15T17:24:22.596Z,49.57
2019-05-15T17:26:49.050Z,49.30
2019-05-15T17:29:15.663Z,49.83
2019-05-15T17:31:42.408Z,49.79
2019-05-15T17:34:08.899Z,49.70
2019-05-15T17:36:35.353Z,49.64
2019-05-15T17:39:01.874Z,49.29
2019-05-15T17:41:28.730Z,49.75
2019-05-15T17:43:55.369Z,49.30
2019-05-15T17:46:21.952Z,50.02
2019-05-15T17:48:55.451Z,50.44
2019-05-15T17:51:17.756Z,50.70
2019-05-15T17:53:44.463Z,50.99
2019-05-15T17:56:10.976Z,51.05
2019-05-15T17:58:38.210Z,51.63
2019-05-15T18:01:05.090Z,51.87
2019-05-15T18:03:31.555Z,52.40
2019-05-15T18:05:59.044Z,52.28
2019-05-15T18:08:28.479Z,52.92
2019-05-15T18:10:54.583Z,52.33
2019-05-15T18:13:21.353Z,52.42
2019-05-15T18:15:48.928Z,51.78
2019-05-15T18:18:15.703Z,51.85
2019-05-15T18:20:42.221Z,52.09
2019-05-15T18:23:08.804Z,52.34
2019-05-15T18:25:35.524Z,51.93
2019-05-15T18:28:04.267Z,52.10
2019-05-15T18:30:31.340Z,51.50
2019-05-15T18:32:58.863Z,51.64
2019-05-15T18:35:25.603Z,52.21
2019-05-15T18:37:53.111Z,53.91
2019-05-15T18:40:20.081Z,54.78
2019-05-15T18:42:49.364Z,54.69
2019-05-15T18:45:18.280Z,56.08
2019-05-15T18:47:44.860Z,56.15
2019-05-15T18:50:13.584Z,56.44
2019-05-15T18:52:40.587Z,57.96
2019-05-15T18:55:08.067Z,58.10
2019-05-15T18:57:34.768Z,59.04
2019-05-15T19:00:01.551Z,60.17
2019-05-15T19:02:28.220Z,61.24
2019-05-15T19:04:54.726Z,61.84
2019-05-15T19:07:21.543Z,62.45
2019-05-15T19:09:48.545Z,61.78
2019-05-15T19:12:15.164Z,62.79
2019-05-15T19:14:42.095Z,63.25
2019-05-15T19:17:08.709Z,63.17
2019-05-15T19:19:35.412Z,62.85
2019-05-15T19:22:02.332Z,63.63
2019-05-15T19:24:29.038Z,63.38
2019-05-15T19:26:55.550Z,64.07
2019-05-15T19:29:22.191Z,65.89
2019-05-15T19:31:49.041Z,65.88
2019-05-15T19:34:15.571Z,66.77
2019-05-15T19:36:42.582Z,67.34
2019-05-15T19:39:09.383Z,66.54
2019-05-15T19:41:38.094Z,65.92
2019-05-15T19:44:04.852Z,65.81
2019-05-15T19:46:31.413Z,66.28
2019-05-15T19:48:58.294Z,65.74
2019-05-15T19:51:24.897Z,66.58
2019-05-15T19:53:51.573Z,66.43
2019-05-15T19:56:18.961Z,65.89
2019-05-15T19:58:45.589Z,67.26
2019-05-15T20:01:12.132Z,61.96
2019-05-15T20:03:49.337Z,57.47
2019-05-15T20:06:08.379Z,58.49
2019-05-15T20:08:34.956Z,58.25
2019-05-15T20:11:01.617Z,55.27
2019-05-15T20:13:29.073Z,55.11
2019-05-15T20:15:57.867Z,55.52
2019-05-15T20:18:24.271Z,56.27
2019-05-15T20:20:50.743Z,56.53
2019-05-15T20:23:18.417Z,56.56
2019-05-15T20:25:45.144Z,55.76
2019-05-15T20:28:11.607Z,55.28
2019-05-15T20:30:38.929Z,54.70
2019-05-15T20:33:05.455Z,55.27
2019-05-15T20:35:32.175Z,56.05
2019-05-15T20:37:59.760Z,56.32
2019-05-15T20:40:26.281Z,56.46
2019-05-15T20:42:52.907Z,56.02
2019-05-15T20:45:19.501Z,55.89
2019-05-15T20:47:46.265Z,55.99
2019-05-15T20:50:12.818Z,56.14
2019-05-15T20:52:39.829Z,56.20
2019-05-15T20:55:07.981Z,56.02
2019-05-15T20:57:37.584Z,55.84
2019-05-15T21:00:04.235Z,56.16
2019-05-15T21:02:31.771Z,56.09
2019-05-15T21:04:58.653Z,56.28
2019-05-15T21:07:37.913Z,56.18
2019-05-15T21:09:55.250Z,56.34
2019-05-15T21:12:21.732Z,56.74
2019-05-15T21:14:48.434Z,57.01
2019-05-15T21:17:15.544Z,56.88
2019-05-15T21:19:42.112Z,56.89
2019-05-15T21:22:11.065Z,56.62
2019-05-15T21:24:37.835Z,56.46
2019-05-15T21:27:04.505Z,56.99
2019-05-15T21:29:32.040Z,58.78
2019-05-15T21:31:58.557Z,58.94
2019-05-15T21:34:36.965Z,58.77
2019-05-15T21:36:53.647Z,59.28
2019-05-15T21:39:21.199Z,59.60
2019-05-15T21:41:48.884Z,59.77
2019-05-15T21:44:15.419Z,60.10
2019-05-15T21:46:42.199Z,60.26
2019-05-15T21:49:08.972Z,59.77
2019-05-15T21:51:35.563Z,59.97
2019-05-15T21:54:02.044Z,59.95
2019-05-15T21:56:29.620Z,59.45
2019-05-15T21:58:58.100Z,59.25
2019-05-15T22:01:24.791Z,58.97
2019-05-15T22:03:52.448Z,59.06
2019-05-15T22:06:23.350Z,58.99
2019-05-15T22:08:52.209Z,59.37
2019-05-15T22:11:21.912Z,59.64
2019-05-15T22:13:48.450Z,60.06
2019-05-15T22:16:15.373Z,59.79
2019-05-15T22:18:42.070Z,59.04
2019-05-15T22:21:08.631Z,58.93
2019-05-15T22:23:35.210Z,58.25
2019-05-15T22:26:01.882Z,58.06
2019-05-15T22:28:28.609Z,57.82
2019-05-15T22:30:55.088Z,57.90
2019-05-15T22:33:21.681Z,58.12
2019-05-15T22:35:48.928Z,58.55
2019-05-15T22:38:15.495Z,59.46
2019-05-15T22:40:43.911Z,58.82
2019-05-15T22:43:10.766Z,58.48
2019-05-15T22:45:37.823Z,58.98
2019-05-15T22:48:04.721Z,58.56
2019-05-15T22:50:31.336Z,57.74
2019-05-15T22:52:58.625Z,57.43
2019-05-15T22:55:25.501Z,57.10
2019-05-15T22:57:52.238Z,57.39
2019-05-15T23:00:18.868Z,57.40
2019-05-15T23:02:45.723Z,56.49
2019-05-15T23:05:23.884Z,56.55
2019-05-15T23:07:40.773Z,56.56
2019-05-15T23:10:08.884Z,56.86
2019-05-15T23:12:35.626Z,57.13
2019-05-15T23:15:04.238Z,57.28
2019-05-15T23:17:30.715Z,57.46
2019-05-15T23:19:58.197Z,57.88
2019-05-15T23:22:24.904Z,58.07
2019-05-15T23:24:51.364Z,57.99
2019-05-15T23:27:18.208Z,58.08
2019-05-15T23:29:44.728Z,58.01
2019-05-15T23:32:11.251Z,58.19
2019-05-15T23:34:38.637Z,58.68
2019-05-15T23:37:05.261Z,58.92
2019-05-15T23:39:33.074Z,58.56
2019-05-15T23:41:59.567Z,58.83
2019-05-15T23:44:27.650Z,58.90
2019-05-15T23:46:54.449Z,58.83
2019-05-15T23:49:21.177Z,58.04
2019-05-15T23:51:48.788Z,58.07
2019-05-15T23:54:15.395Z,58.48
2019-05-15T23:56:41.853Z,58.80
2019-05-15T23:59:08.597Z,58.87
